createdAt,value
2022-09-07T00:02:20.557Z,1.50
2022-09-07T00:04:47.063Z,1.40
2022-09-07T00:07:13.623Z,1.43
2022-09-07T00:09:40.093Z,1.63
2022-09-07T00:12:06.617Z,1.60
2022-09-07T00:14:34.308Z,1.60
2022-09-07T00:17:00.791Z,1.90
2022-09-07T00:19:27.308Z,1.30
2022-09-07T00:21:53.805Z,1.40
2022-09-07T00:24:20.279Z,1.50
2022-09-07T00:26:46.783Z,1.30
2022-09-07T00:29:13.273Z,1.30
2022-09-07T00:31:39.890Z,1.40
2022-09-07T00:34:06.607Z,1.40
2022-09-07T00:36:33.164Z,1.43
2022-09-07T00:38:59.801Z,1.40
2022-09-07T00:41:26.605Z,1.77
2022-09-07T00:43:56.083Z,1.30
2022-09-07T00:46:27.219Z,2.03
2022-09-07T00:49:13.979Z,1.30
2022-09-07T00:51:53.524Z,1.50
2022-09-07T00:54:24.649Z,1.60
2022-09-07T00:56:52.924Z,1.53
2022-09-07T00:59:24.190Z,1.50
2022-09-07T01:01:51.041Z,1.50
2022-09-07T01:04:18.072Z,1.43
2022-09-07T01:06:44.803Z,1.43
2022-09-07T01:09:14.004Z,1.40
2022-09-07T01:11:40.705Z,1.50
2022-09-07T01:14:09.521Z,1.37
2022-09-07T01:16:47.757Z,1.50
2022-09-07T01:19:26.387Z,1.70
2022-09-07T01:22:20.676Z,1.33
2022-09-07T01:24:55.717Z,1.43
2022-09-07T01:27:41.008Z,1.40
2022-09-07T01:30:10.261Z,1.50
2022-09-07T01:32:56.797Z,1.50
2022-09-07T01:35:37.868Z,1.50
2022-09-07T01:38:35.433Z,1.50
2022-09-07T01:41:25.430Z,1.40
2022-09-07T01:44:05.969Z,1.50
2022-09-07T01:46:41.470Z,1.60
2022-09-07T01:49:21.252Z,1.70
2022-09-07T01:51:51.717Z,1.60
2022-09-07T01:54:30.361Z,1.60
2022-09-07T01:57:03.604Z,1.40
2022-09-07T01:59:33.382Z,1.60
2022-09-07T02:02:07.736Z,1.70
2022-09-07T02:04:48.660Z,1.80
2022-09-07T02:07:22.147Z,2.03
2022-09-07T02:09:55.768Z,1.93
2022-09-07T02:12:27.188Z,1.80
2022-09-07T02:14:59.477Z,2.27
2022-09-07T02:17:33.814Z,2.40
2022-09-07T02:20:08.130Z,2.23
2022-09-07T02:22:39.258Z,1.97
2022-09-07T02:25:07.562Z,2.10
2022-09-07T02:27:45.953Z,2.07
2022-09-07T02:30:13.068Z,2.40
2022-09-07T02:32:39.628Z,2.80
2022-09-07T02:35:06.695Z,2.30
2022-09-07T02:37:34.249Z,2.77
2022-09-07T02:40:00.947Z,2.60
2022-09-07T02:42:33.219Z,3.07
2022-09-07T02:45:00.892Z,2.80
2022-09-07T02:47:33.972Z,2.90
2022-09-07T02:50:28.475Z,2.87
2022-09-07T02:53:10.217Z,3.20
2022-09-07T02:55:55.345Z,3.20
2022-09-07T02:58:42.057Z,2.80
2022-09-07T03:01:17.078Z,3.10
2022-09-07T03:03:55.637Z,2.70
2022-09-07T03:06:26.981Z,2.73
2022-09-07T03:08:54.805Z,2.97
2022-09-07T03:11:21.418Z,2.53
2022-09-07T03:13:48.051Z,2.63
2022-09-07T03:16:15.130Z,2.70
2022-09-07T03:18:44.326Z,2.47
2022-09-07T03:21:10.940Z,2.57
2022-09-07T03:23:40.464Z,2.50
2022-09-07T03:26:07.005Z,2.47
2022-09-07T03:28:33.512Z,2.43
2022-09-07T03:31:00.965Z,2.10
2022-09-07T03:33:27.598Z,2.30
2022-09-07T03:35:59.781Z,2.20
2022-09-07T03:38:26.288Z,2.30
2022-09-07T03:41:01.012Z,2.20
2022-09-07T03:43:28.581Z,2.43
2022-09-07T03:46:03.748Z,2.17
2022-09-07T03:48:32.260Z,2.20
2022-09-07T03:51:00.410Z,2.30
2022-09-07T03:53:27.266Z,2.40
2022-09-07T03:56:00.895Z,2.30
2022-09-07T03:58:29.488Z,1.97
2022-09-07T04:00:56.345Z,2.30
2022-09-07T04:03:22.897Z,1.90
2022-09-07T04:05:49.643Z,2.10
2022-09-07T04:08:16.164Z,1.73
2022-09-07T04:10:42.997Z,2.20
2022-09-07T04:13:09.685Z,2.40
2022-09-07T04:15:36.264Z,2.00
2022-09-07T04:18:02.765Z,2.10
2022-09-07T04:20:29.884Z,2.13
2022-09-07T04:22:56.547Z,2.20
2022-09-07T04:25:23.313Z,2.17
2022-09-07T04:27:49.801Z,1.87
2022-09-07T04:30:16.366Z,2.00
2022-09-07T04:32:42.853Z,2.40
2022-09-07T04:35:10.048Z,2.10
2022-09-07T04:37:36.493Z,2.43
2022-09-07T04:40:03.254Z,2.40
2022-09-07T04:42:29.994Z,1.90
2022-09-07T04:44:57.046Z,1.90
2022-09-07T04:47:23.656Z,2.40
2022-09-07T04:49:51.811Z,1.90
2022-09-07T04:52:18.816Z,2.30
2022-09-07T04:54:49.653Z,2.73
2022-09-07T04:57:16.703Z,2.30
2022-09-07T04:59:43.218Z,2.10
2022-09-07T05:02:09.746Z,1.97
2022-09-07T05:04:36.548Z,2.23
2022-09-07T05:07:03.033Z,2.30
2022-09-07T05:09:30.664Z,2.30
2022-09-07T05:11:57.194Z,2.03
2022-09-07T05:14:23.730Z,2.17
2022-09-07T05:16:50.287Z,2.10
2022-09-07T05:19:16.863Z,2.10
2022-09-07T05:21:43.389Z,2.03
2022-09-07T05:24:09.910Z,2.40
2022-09-07T05:26:37.147Z,2.37
2022-09-07T05:31:52.175Z,2.13
2022-09-07T05:34:33.970Z,2.10
2022-09-07T05:37:01.244Z,2.17
2022-09-07T05:39:29.940Z,2.30
2022-09-07T05:41:56.825Z,2.00
2022-09-07T05:47:10.096Z,2.23
2022-09-07T05:49:36.669Z,2.30
2022-09-07T05:52:03.428Z,2.03
2022-09-07T05:54:29.915Z,2.20
2022-09-07T05:56:56.382Z,2.17
2022-09-07T05:59:22.874Z,1.90
2022-09-07T06:01:49.463Z,1.93
2022-09-07T06:04:16.149Z,1.83
2022-09-07T06:09:12.602Z,2.20
2022-09-07T06:11:39.090Z,2.30
2022-09-07T06:14:05.573Z,2.50
2022-09-07T06:16:33.860Z,2.30
2022-09-07T06:19:07.565Z,2.03
2022-09-07T06:21:38.446Z,2.00
2022-09-07T06:24:06.211Z,2.30
2022-09-07T06:26:32.964Z,2.37
2022-09-07T06:28:59.553Z,2.37
2022-09-07T06:31:26.075Z,2.03
2022-09-07T06:33:54.458Z,2.50
2022-09-07T06:36:22.995Z,2.47
2022-09-07T06:38:50.465Z,2.10
2022-09-07T06:44:07.398Z,2.10
2022-09-07T06:49:20.374Z,2.60
2022-09-07T06:51:46.953Z,2.23
2022-09-07T06:57:00.036Z,2.20
2022-09-07T06:59:26.516Z,2.30
2022-09-07T07:01:52.981Z,2.10
2022-09-07T07:04:19.514Z,1.90
2022-09-07T07:06:46.012Z,2.40
2022-09-07T07:09:13.981Z,2.37
2022-09-07T07:11:40.564Z,2.33
2022-09-07T07:14:07.109Z,2.10
2022-09-07T07:16:33.632Z,1.90
2022-09-07T07:19:00.303Z,2.33
2022-09-07T07:21:28.964Z,1.90
2022-09-07T07:24:04.996Z,2.27
2022-09-07T07:26:34.713Z,1.90
2022-09-07T07:29:02.792Z,1.90
2022-09-07T07:31:30.280Z,2.20
2022-09-07T07:33:56.947Z,1.80
2022-09-07T07:36:25.561Z,2.00
2022-09-07T07:39:01.897Z,2.00
2022-09-07T07:44:18.156Z,2.40
2022-09-07T07:46:48.079Z,1.90
2022-09-07T07:49:14.716Z,2.10
2022-09-07T07:54:27.625Z,2.30
2022-09-07T07:56:54.056Z,2.27
2022-09-07T07:59:20.545Z,2.03
2022-09-07T08:01:47.074Z,2.47
2022-09-07T08:04:13.648Z,2.47
2022-09-07T08:06:42.593Z,2.20
2022-09-07T08:09:09.076Z,2.47
2022-09-07T08:11:35.522Z,2.47
2022-09-07T08:14:03.332Z,6.07
2022-09-07T08:16:29.801Z,2.50
2022-09-07T08:18:57.556Z,2.50
2022-09-07T08:21:24.034Z,2.37
2022-09-07T08:23:50.500Z,2.60
2022-09-07T08:26:17.057Z,2.00
2022-09-07T08:28:46.748Z,2.27
2022-09-07T08:31:15.290Z,2.40
2022-09-07T08:33:42.089Z,4.17
2022-09-07T08:36:13.360Z,4.07
2022-09-07T08:38:39.893Z,30.87
2022-09-07T08:41:34.407Z,35.77
2022-09-07T08:44:03.860Z,2.87
2022-09-07T08:46:40.213Z,5.00
2022-09-07T08:49:17.056Z,7.67
2022-09-07T08:51:51.034Z,2.80
2022-09-07T08:54:18.077Z,3.93
2022-09-07T08:59:40.908Z,2.60
2022-09-07T09:02:27.602Z,2.70
2022-09-07T09:07:49.401Z,2.67
2022-09-07T09:10:33.512Z,2.80
2022-09-07T09:13:15.015Z,2.70
2022-09-07T09:15:53.591Z,2.80
2022-09-07T09:18:46.567Z,2.50
2022-09-07T09:21:18.758Z,2.83
2022-09-07T09:23:48.377Z,3.23
2022-09-07T09:26:31.445Z,3.03
2022-09-07T09:28:58.056Z,3.20
2022-09-07T09:31:28.989Z,2.93
2022-09-07T09:34:13.855Z,3.30
2022-09-07T09:36:43.393Z,2.93
2022-09-07T09:39:36.584Z,3.00
2022-09-07T09:42:16.273Z,3.40
2022-09-07T09:44:43.546Z,3.20
2022-09-07T09:47:33.061Z,3.33
2022-09-07T09:52:28.545Z,3.03
2022-09-07T09:53:02.476Z,3.20
2022-09-07T09:55:36.073Z,3.20
2022-09-07T10:01:22.145Z,3.30
2022-09-07T10:03:58.443Z,2.80
2022-09-07T10:06:27.858Z,3.40
2022-09-07T10:09:01.911Z,3.03
2022-09-07T10:14:34.296Z,3.67
2022-09-07T10:17:02.153Z,3.57
2022-09-07T10:19:28.733Z,3.47
2022-09-07T10:21:57.356Z,3.63
2022-09-07T10:24:28.709Z,3.67
2022-09-07T10:26:55.205Z,3.60
2022-09-07T10:29:36.124Z,4.00
2022-09-07T10:32:05.790Z,3.83
2022-09-07T10:34:38.222Z,3.57
2022-09-07T10:37:11.026Z,3.50
2022-09-07T10:40:00.155Z,3.83
2022-09-07T10:42:33.760Z,3.87
2022-09-07T10:45:11.460Z,3.80
2022-09-07T10:48:19.504Z,3.90
2022-09-07T10:50:51.450Z,3.90
2022-09-07T10:56:49.297Z,3.40
2022-09-07T11:06:16.205Z,3.53
2022-09-07T11:12:04.194Z,3.53
2022-09-07T11:14:58.508Z,3.23
2022-09-07T11:17:27.136Z,3.53
2022-09-07T11:20:22.396Z,3.40
2022-09-07T11:22:54.070Z,3.13
2022-09-07T11:25:32.274Z,3.37
2022-09-07T11:28:02.894Z,3.10
2022-09-07T11:30:36.477Z,3.00
2022-09-07T11:33:21.740Z,3.30
2022-09-07T11:35:48.161Z,3.50
2022-09-07T11:38:35.596Z,3.40
2022-09-07T11:41:13.794Z,3.30
2022-09-07T11:43:46.534Z,3.33
2022-09-07T11:46:16.164Z,3.33
2022-09-07T11:48:49.252Z,3.60
2022-09-07T11:51:34.485Z,3.40
2022-09-07T11:54:08.661Z,3.30
2022-09-07T11:56:39.777Z,3.23
2022-09-07T11:59:12.266Z,3.40
2022-09-07T12:01:54.364Z,3.60
2022-09-07T12:04:56.132Z,3.50
2022-09-07T12:10:08.854Z,3.40
2022-09-07T12:12:38.309Z,3.97
2022-09-07T12:15:10.945Z,3.43
2022-09-07T12:17:55.615Z,4.23
2022-09-07T12:20:26.793Z,3.43
2022-09-07T12:23:05.373Z,4.17
2022-09-07T12:25:33.983Z,3.87
2022-09-07T12:28:00.936Z,3.50
2022-09-07T12:30:28.186Z,3.90
2022-09-07T12:33:06.057Z,4.20
2022-09-07T12:35:40.277Z,4.30
2022-09-07T12:38:18.955Z,4.40
2022-09-07T12:40:54.598Z,5.10
2022-09-07T12:43:21.006Z,4.67
2022-09-07T12:45:50.692Z,4.37
2022-09-07T12:48:17.151Z,4.43
2022-09-07T12:51:02.007Z,3.87
2022-09-07T12:53:39.468Z,5.90
2022-09-07T12:56:21.396Z,5.00
2022-09-07T12:58:56.991Z,4.27
2022-09-07T13:01:35.793Z,4.90
2022-09-07T13:04:34.434Z,4.40
2022-09-07T13:07:08.297Z,5.13
2022-09-07T13:09:36.510Z,4.40
2022-09-07T13:12:55.290Z,4.90
2022-09-07T13:15:32.302Z,4.30
2022-09-07T13:17:59.005Z,4.23
2022-09-07T13:20:30.383Z,4.60
2022-09-07T13:23:08.370Z,4.83
2022-09-07T13:25:37.905Z,3.83
2022-09-07T13:28:15.811Z,4.30
2022-09-07T13:30:53.470Z,4.37
2022-09-07T13:33:29.438Z,4.50
2022-09-07T13:36:00.290Z,4.43
2022-09-07T13:38:28.032Z,4.53
2022-09-07T13:41:00.494Z,4.10
2022-09-07T13:43:27.020Z,3.57
2022-09-07T13:45:53.591Z,4.20
2022-09-07T13:48:35.605Z,3.73
2022-09-07T13:51:10.495Z,3.80
2022-09-07T13:53:45.735Z,3.73
2022-09-07T13:56:16.729Z,3.30
2022-09-07T13:58:47.005Z,3.93
2022-09-07T14:01:13.487Z,4.07
2022-09-07T14:03:49.252Z,3.90
2022-09-07T14:06:27.778Z,3.93
2022-09-07T14:08:57.090Z,3.90
2022-09-07T14:11:43.831Z,3.60
2022-09-07T14:14:13.835Z,3.60
2022-09-07T14:16:42.253Z,4.20
2022-09-07T14:19:10.868Z,3.30
2022-09-07T14:21:37.686Z,3.73
2022-09-07T14:24:19.444Z,4.10
2022-09-07T14:26:48.031Z,3.27
2022-09-07T14:29:32.233Z,3.53
2022-09-07T14:32:00.957Z,3.60
2022-09-07T14:34:34.071Z,3.60
2022-09-07T14:37:04.346Z,3.87
2022-09-07T14:39:35.817Z,3.43
2022-09-07T14:42:03.818Z,3.50
2022-09-07T14:44:39.022Z,3.60
2022-09-07T14:47:29.697Z,3.20
2022-09-07T14:49:58.244Z,3.53
2022-09-07T14:52:35.760Z,3.43
2022-09-07T14:55:07.970Z,2.90
2022-09-07T14:57:34.425Z,3.00
2022-09-07T15:00:26.794Z,3.40
2022-09-07T15:02:53.322Z,3.10
2022-09-07T15:05:28.060Z,3.37
2022-09-07T15:08:02.729Z,3.23
2022-09-07T15:10:32.226Z,3.97
2022-09-07T15:13:00.012Z,3.23
2022-09-07T15:15:29.491Z,3.07
2022-09-07T15:18:03.229Z,3.70
2022-09-07T15:20:43.998Z,4.00
2022-09-07T15:23:12.598Z,3.57
2022-09-07T15:25:40.703Z,2.90
2022-09-07T15:28:15.272Z,3.00
2022-09-07T15:33:48.173Z,2.80
2022-09-07T15:36:16.544Z,3.37
2022-09-07T15:41:29.621Z,3.40
2022-09-07T15:43:56.837Z,3.30
2022-09-07T15:46:25.060Z,3.47
2022-09-07T15:48:55.717Z,3.57
2022-09-07T15:54:13.969Z,2.97
2022-09-07T15:56:42.688Z,3.30
2022-09-07T15:59:10.343Z,2.90
2022-09-07T16:01:54.708Z,2.83
2022-09-07T16:04:24.051Z,3.20
2022-09-07T16:06:50.843Z,3.63
2022-09-07T16:09:17.449Z,3.37
2022-09-07T16:11:44.384Z,4.00
2022-09-07T16:14:12.405Z,3.70
2022-09-07T16:19:25.290Z,3.83
2022-09-07T16:21:51.739Z,3.80
2022-09-07T16:24:18.386Z,4.60
2022-09-07T16:26:44.962Z,6.00
2022-09-07T16:29:11.470Z,3.60
2022-09-07T16:31:38.159Z,3.70
2022-09-07T16:34:04.892Z,4.20
2022-09-07T16:36:31.374Z,4.43
2022-09-07T16:38:59.855Z,4.20
2022-09-07T16:41:29.343Z,4.20
2022-09-07T16:43:56.024Z,3.90
2022-09-07T16:46:25.266Z,4.03
2022-09-07T16:48:52.587Z,3.83
2022-09-07T16:51:21.347Z,4.20
2022-09-07T16:53:49.398Z,4.20
2022-09-07T16:56:18.204Z,4.53
2022-09-07T16:58:46.765Z,4.03
2022-09-07T17:01:15.943Z,3.97
2022-09-07T17:03:43.142Z,3.50
2022-09-07T17:06:11.592Z,4.07
2022-09-07T17:08:38.698Z,3.80
2022-09-07T17:11:09.183Z,3.83
2022-09-07T17:13:37.306Z,4.00
2022-09-07T17:16:05.411Z,3.97
2022-09-07T17:21:19.866Z,4.30
2022-09-07T17:23:54.377Z,3.90
2022-09-07T17:26:23.252Z,3.53
2022-09-07T17:28:50.873Z,3.33
2022-09-07T17:34:11.416Z,3.47
2022-09-07T17:36:37.891Z,3.57
2022-09-07T17:39:20.114Z,4.23
2022-09-07T17:41:48.237Z,4.30
2022-09-07T17:44:15.117Z,5.03
2022-09-07T17:46:41.609Z,4.77
2022-09-07T17:49:16.456Z,4.73
2022-09-07T17:51:44.235Z,4.60
2022-09-07T17:54:14.193Z,4.27
2022-09-07T17:56:41.650Z,4.30
2022-09-07T18:01:55.614Z,5.07
2022-09-07T18:04:22.302Z,4.53
2022-09-07T18:06:48.984Z,4.30
2022-09-07T18:09:15.784Z,4.67
2022-09-07T18:11:46.751Z,4.80
2022-09-07T18:14:14.669Z,4.77
2022-09-07T18:16:42.500Z,4.80
2022-09-07T18:19:10.947Z,5.07
2022-09-07T18:21:37.939Z,5.03
2022-09-07T18:24:07.487Z,5.43
2022-09-07T18:26:39.091Z,5.00
2022-09-07T18:29:13.249Z,5.00
2022-09-07T18:31:53.867Z,6.70
2022-09-07T18:34:20.842Z,5.80
2022-09-07T18:36:47.395Z,5.20
2022-09-07T18:39:14.103Z,5.03
2022-09-07T18:41:40.842Z,6.10
2022-09-07T18:45:27.292Z,5.10
2022-09-07T18:46:54.468Z,5.63
2022-09-07T18:49:20.944Z,5.57
2022-09-07T18:54:33.844Z,6.03
2022-09-07T18:57:00.424Z,5.73
2022-09-07T18:59:26.915Z,5.67
2022-09-07T19:01:54.127Z,5.87
2022-09-07T19:04:21.427Z,6.30
2022-09-07T19:06:48.109Z,6.50
2022-09-07T19:09:14.694Z,6.63
2022-09-07T19:11:42.132Z,6.27
2022-09-07T19:14:08.911Z,6.53
2022-09-07T19:16:35.532Z,6.67
2022-09-07T19:19:04.448Z,6.47
2022-09-07T19:21:35.747Z,7.13
2022-09-07T19:24:07.647Z,6.80
2022-09-07T19:26:36.879Z,6.60
2022-09-07T19:29:04.631Z,7.27
2022-09-07T19:31:31.427Z,6.80
2022-09-07T19:33:59.907Z,6.33
2022-09-07T19:36:27.652Z,6.70
2022-09-07T19:38:54.126Z,6.77
2022-09-07T19:41:21.072Z,7.70
2022-09-07T19:43:48.400Z,6.67
2022-09-07T19:46:16.461Z,7.30
2022-09-07T19:48:44.556Z,7.37
2022-09-07T19:51:12.995Z,7.80
2022-09-07T19:53:42.946Z,7.53
2022-09-07T19:56:12.814Z,7.37
2022-09-07T19:58:41.809Z,7.57
2022-09-07T20:01:08.394Z,7.60
2022-09-07T20:03:35.434Z,8.13
2022-09-07T20:06:18.956Z,7.90
2022-09-07T20:08:45.720Z,8.30
2022-09-07T20:11:14.466Z,8.70
2022-09-07T20:13:41.524Z,8.17
2022-09-07T20:16:11.291Z,7.83
2022-09-07T20:18:38.980Z,7.20
2022-09-07T20:21:06.982Z,7.53
2022-09-07T20:23:34.978Z,7.70
2022-09-07T20:26:04.193Z,8.47
2022-09-07T20:28:31.351Z,7.93
2022-09-07T20:30:58.072Z,7.10
2022-09-07T20:33:24.742Z,7.50
2022-09-07T20:35:51.568Z,8.00
2022-09-07T20:38:20.636Z,7.70
2022-09-07T20:40:54.358Z,7.57
2022-09-07T20:43:21.660Z,7.20
2022-09-07T20:45:48.262Z,7.63
2022-09-07T20:48:15.433Z,8.13
2022-09-07T20:50:42.278Z,8.60
2022-09-07T20:53:08.856Z,7.93
2022-09-07T20:55:35.980Z,8.53
2022-09-07T20:58:03.004Z,7.93
2022-09-07T21:00:29.642Z,8.43
2022-09-07T21:02:56.373Z,8.03
2022-09-07T21:05:22.875Z,9.27
2022-09-07T21:07:49.401Z,8.93
2022-09-07T21:10:15.984Z,9.20
2022-09-07T21:12:42.531Z,9.30
2022-09-07T21:15:09.838Z,9.43
2022-09-07T21:17:36.349Z,10.03
2022-09-07T21:20:03.030Z,8.97
2022-09-07T21:22:30.918Z,10.00
2022-09-07T21:24:57.402Z,8.77
2022-09-07T21:27:24.476Z,8.43
2022-09-07T21:29:51.124Z,8.10
2022-09-07T21:32:17.629Z,8.87
2022-09-07T21:34:44.060Z,9.37
2022-09-07T21:37:10.526Z,8.47
2022-09-07T21:39:37.016Z,9.13
2022-09-07T21:42:04.473Z,8.67
2022-09-07T21:44:30.906Z,7.47
2022-09-07T21:46:57.444Z,7.70
2022-09-07T21:49:23.972Z,8.47
2022-09-07T21:51:50.438Z,7.73
2022-09-07T21:54:16.904Z,9.30
2022-09-07T21:56:46.504Z,9.33
2022-09-07T21:59:13.536Z,8.87
2022-09-07T22:01:40.917Z,8.27
2022-09-07T22:04:07.484Z,8.47
2022-09-07T22:06:34.792Z,9.40
2022-09-07T22:09:03.170Z,9.50
2022-09-07T22:11:30.114Z,9.93
2022-09-07T22:13:58.755Z,9.63
2022-09-07T22:16:25.668Z,10.43
2022-09-07T22:18:52.538Z,9.23
2022-09-07T22:21:24.704Z,10.37
2022-09-07T22:23:54.353Z,10.00
2022-09-07T22:26:22.812Z,10.17
2022-09-07T22:28:49.652Z,10.00
2022-09-07T22:31:19.107Z,10.23
2022-09-07T22:33:46.633Z,10.53
2022-09-07T22:36:17.441Z,10.17
2022-09-07T22:38:45.407Z,10.20
2022-09-07T22:41:20.078Z,9.97
2022-09-07T22:43:47.156Z,10.10
2022-09-07T22:46:14.407Z,9.70
2022-09-07T22:48:41.390Z,10.60
2022-09-07T22:51:08.828Z,10.97
2022-09-07T22:53:37.259Z,11.20
2022-09-07T22:56:08.172Z,10.87
2022-09-07T22:58:35.227Z,11.07
2022-09-07T23:01:02.043Z,10.03
2022-09-07T23:03:29.494Z,10.40
2022-09-07T23:05:57.048Z,11.13
2022-09-07T23:08:24.546Z,11.37
2022-09-07T23:10:51.139Z,11.23
2022-09-07T23:13:17.718Z,10.87
2022-09-07T23:15:44.448Z,12.10
2022-09-07T23:18:15.796Z,12.90
2022-09-07T23:20:42.589Z,11.97
2022-09-07T23:23:09.675Z,12.20
2022-09-07T23:25:39.602Z,12.23
2022-09-07T23:28:07.373Z,11.70
2022-09-07T23:30:35.698Z,12.20
2022-09-07T23:33:02.960Z,12.13
2022-09-07T23:35:29.540Z,11.50
2022-09-07T23:37:56.109Z,12.17
2022-09-07T23:40:23.058Z,12.03
2022-09-07T23:42:49.588Z,12.60
2022-09-07T23:45:16.158Z,11.40
2022-09-07T23:47:42.633Z,11.30
2022-09-07T23:50:09.918Z,11.63
2022-09-07T23:52:37.320Z,11.40
2022-09-07T23:55:04.542Z,11.23
2022-09-07T23:57:31.506Z,10.13
2022-09-07T23:59:58.260Z,10.40
